sensor_id;sensor_type;location;lat;lon;timestamp;temperature;humidity
55648;DHT22;45266;48.756;9.246;2023-11-21T00:01:06;6.70;97.10
55648;DHT22;45266;48.756;9.246;2023-11-21T00:06:11;6.70;97.10
55648;DHT22;45266;48.756;9.246;2023-11-21T00:11:14;6.70;97.40
55648;DHT22;45266;48.756;9.246;2023-11-21T00:16:17;6.70;97.50
55648;DHT22;45266;48.756;9.246;2023-11-21T00:21:21;6.70;97.60
55648;DHT22;45266;48.756;9.246;2023-11-21T00:26:24;6.70;97.60
55648;DHT22;45266;48.756;9.246;2023-11-21T00:31:25;6.70;97.40
55648;DHT22;45266;48.756;9.246;2023-11-21T00:36:27;6.60;97.30
55648;DHT22;45266;48.756;9.246;2023-11-21T00:41:29;6.60;97.10
55648;DHT22;45266;48.756;9.246;2023-11-21T00:46:31;6.50;97.50
55648;DHT22;45266;48.756;9.246;2023-11-21T00:51:34;6.60;97.40
55648;DHT22;45266;48.756;9.246;2023-11-21T00:56:35;6.60;97.80
55648;DHT22;45266;48.756;9.246;2023-11-21T01:01:37;6.70;97.80
55648;DHT22;45266;48.756;9.246;2023-11-21T01:06:39;6.70;97.70
55648;DHT22;45266;48.756;9.246;2023-11-21T01:11:41;6.70;97.80
55648;DHT22;45266;48.756;9.246;2023-11-21T01:16:44;6.70;97.60
55648;DHT22;45266;48.756;9.246;2023-11-21T01:21:46;6.60;97.80
55648;DHT22;45266;48.756;9.246;2023-11-21T01:26:48;6.70;97.80
55648;DHT22;45266;48.756;9.246;2023-11-21T01:31:50;6.70;97.60
55648;DHT22;45266;48.756;9.246;2023-11-21T01:36:53;6.70;97.80
55648;DHT22;45266;48.756;9.246;2023-11-21T01:41:55;6.70;97.80
55648;DHT22;45266;48.756;9.246;2023-11-21T01:47:00;6.80;98.00
55648;DHT22;45266;48.756;9.246;2023-11-21T01:52:06;6.80;98.00
55648;DHT22;45266;48.756;9.246;2023-11-21T01:57:08;6.80;98.00
55648;DHT22;45266;48.756;9.246;2023-11-21T02:02:10;6.80;98.00
55648;DHT22;45266;48.756;9.246;2023-11-21T02:07:12;6.80;98.20
55648;DHT22;45266;48.756;9.246;2023-11-21T02:12:14;6.80;98.00
55648;DHT22;45266;48.756;9.246;2023-11-21T02:17:16;6.90;98.20
55648;DHT22;45266;48.756;9.246;2023-11-21T02:22:20;6.90;98.20
55648;DHT22;45266;48.756;9.246;2023-11-21T02:27:21;6.80;98.00
55648;DHT22;45266;48.756;9.246;2023-11-21T02:32:25;6.90;98.00
55648;DHT22;45266;48.756;9.246;2023-11-21T02:37:27;6.80;97.90
55648;DHT22;45266;48.756;9.246;2023-11-21T02:42:29;6.80;98.10
55648;DHT22;45266;48.756;9.246;2023-11-21T02:47:31;6.80;98.20
55648;DHT22;45266;48.756;9.246;2023-11-21T02:52:33;6.80;98.20
55648;DHT22;45266;48.756;9.246;2023-11-21T02:57:35;6.80;98.20
55648;DHT22;45266;48.756;9.246;2023-11-21T03:02:37;6.70;98.20
55648;DHT22;45266;48.756;9.246;2023-11-21T03:07:41;6.70;98.00
55648;DHT22;45266;48.756;9.246;2023-11-21T03:12:43;6.60;97.80
55648;DHT22;45266;48.756;9.246;2023-11-21T03:17:46;6.60;97.90
55648;DHT22;45266;48.756;9.246;2023-11-21T03:22:50;6.50;97.70
55648;DHT22;45266;48.756;9.246;2023-11-21T03:27:53;6.50;97.70
55648;DHT22;45266;48.756;9.246;2023-11-21T03:32:55;6.50;97.80
55648;DHT22;45266;48.756;9.246;2023-11-21T03:37:56;6.50;98.00
55648;DHT22;45266;48.756;9.246;2023-11-21T03:42:58;6.50;98.00
55648;DHT22;45266;48.756;9.246;2023-11-21T03:48:00;6.50;98.10
55648;DHT22;45266;48.756;9.246;2023-11-21T03:53:03;6.50;98.20
55648;DHT22;45266;48.756;9.246;2023-11-21T03:58:05;6.50;98.40
55648;DHT22;45266;48.756;9.246;2023-11-21T04:03:07;6.60;98.30
55648;DHT22;45266;48.756;9.246;2023-11-21T04:08:09;6.50;98.20
55648;DHT22;45266;48.756;9.246;2023-11-21T04:13:11;6.50;98.20
55648;DHT22;45266;48.756;9.246;2023-11-21T04:18:12;6.50;98.20
55648;DHT22;45266;48.756;9.246;2023-11-21T04:23:14;6.60;98.20
55648;DHT22;45266;48.756;9.246;2023-11-21T04:28:16;6.60;98.40
55648;DHT22;45266;48.756;9.246;2023-11-21T04:33:18;6.60;98.40
55648;DHT22;45266;48.756;9.246;2023-11-21T04:38:20;6.60;98.50
55648;DHT22;45266;48.756;9.246;2023-11-21T04:43:22;6.60;98.60
55648;DHT22;45266;48.756;9.246;2023-11-21T04:48:24;6.60;98.50
55648;DHT22;45266;48.756;9.246;2023-11-21T04:53:26;6.60;98.70
55648;DHT22;45266;48.756;9.246;2023-11-21T04:58:28;6.70;98.70
55648;DHT22;45266;48.756;9.246;2023-11-21T05:03:30;6.60;98.40
55648;DHT22;45266;48.756;9.246;2023-11-21T05:08:32;6.60;98.20
55648;DHT22;45266;48.756;9.246;2023-11-21T05:13:34;6.50;98.10
55648;DHT22;45266;48.756;9.246;2023-11-21T05:18:36;6.50;98.30
55648;DHT22;45266;48.756;9.246;2023-11-21T05:23:38;6.50;98.20
55648;DHT22;45266;48.756;9.246;2023-11-21T05:28:40;6.50;98.40
55648;DHT22;45266;48.756;9.246;2023-11-21T05:33:42;6.40;98.40
55648;DHT22;45266;48.756;9.246;2023-11-21T05:38:44;6.40;98.30
55648;DHT22;45266;48.756;9.246;2023-11-21T05:43:47;6.50;98.40
55648;DHT22;45266;48.756;9.246;2023-11-21T05:48:49;6.50;98.50
55648;DHT22;45266;48.756;9.246;2023-11-21T05:53:51;6.50;98.80
55648;DHT22;45266;48.756;9.246;2023-11-21T05:58:53;6.50;98.60
55648;DHT22;45266;48.756;9.246;2023-11-21T06:03:56;6.50;98.80
55648;DHT22;45266;48.756;9.246;2023-11-21T06:08:59;6.50;98.50
55648;DHT22;45266;48.756;9.246;2023-11-21T06:14:01;6.40;98.70
55648;DHT22;45266;48.756;9.246;2023-11-21T06:19:04;6.40;98.60
55648;DHT22;45266;48.756;9.246;2023-11-21T06:24:07;6.30;98.60
55648;DHT22;45266;48.756;9.246;2023-11-21T06:29:09;6.30;98.80
55648;DHT22;45266;48.756;9.246;2023-11-21T06:34:10;6.40;99.00
55648;DHT22;45266;48.756;9.246;2023-11-21T06:39:12;6.30;99.10
55648;DHT22;45266;48.756;9.246;2023-11-21T06:44:16;6.40;99.00
55648;DHT22;45266;48.756;9.246;2023-11-21T06:49:18;6.40;99.10
55648;DHT22;45266;48.756;9.246;2023-11-21T06:54:21;6.40;99.30
55648;DHT22;45266;48.756;9.246;2023-11-21T06:59:23;6.40;99.40
55648;DHT22;45266;48.756;9.246;2023-11-21T07:04:25;6.50;99.30
55648;DHT22;45266;48.756;9.246;2023-11-21T07:09:27;6.50;99.30
55648;DHT22;45266;48.756;9.246;2023-11-21T07:14:30;6.60;99.40
55648;DHT22;45266;48.756;9.246;2023-11-21T07:19:32;6.60;99.20
55648;DHT22;45266;48.756;9.246;2023-11-21T07:24:34;6.70;99.20
55648;DHT22;45266;48.756;9.246;2023-11-21T07:29:37;6.70;99.20
55648;DHT22;45266;48.756;9.246;2023-11-21T07:34:39;6.70;99.00
55648;DHT22;45266;48.756;9.246;2023-11-21T07:39:42;6.80;99.20
55648;DHT22;45266;48.756;9.246;2023-11-21T07:44:44;7.00;99.30
55648;DHT22;45266;48.756;9.246;2023-11-21T07:49:48;7.00;99.00
55648;DHT22;45266;48.756;9.246;2023-11-21T07:54:51;7.00;98.80
55648;DHT22;45266;48.756;9.246;2023-11-21T07:59:53;7.10;98.80
55648;DHT22;45266;48.756;9.246;2023-11-21T08:04:55;7.10;98.70
55648;DHT22;45266;48.756;9.246;2023-11-21T08:09:58;7.20;98.80
55648;DHT22;45266;48.756;9.246;2023-11-21T08:15:01;7.40;98.80
55648;DHT22;45266;48.756;9.246;2023-11-21T08:20:05;7.30;98.30
55648;DHT22;45266;48.756;9.246;2023-11-21T08:25:08;7.40;98.40
55648;DHT22;45266;48.756;9.246;2023-11-21T08:30:11;7.40;98.60
55648;DHT22;45266;48.756;9.246;2023-11-21T08:35:14;7.50;98.50
55648;DHT22;45266;48.756;9.246;2023-11-21T08:40:18;7.50;98.40
55648;DHT22;45266;48.756;9.246;2023-11-21T08:45:22;7.50;98.30
55648;DHT22;45266;48.756;9.246;2023-11-21T08:50:24;7.50;98.50
55648;DHT22;45266;48.756;9.246;2023-11-21T08:55:26;7.60;98.60
55648;DHT22;45266;48.756;9.246;2023-11-21T09:00:29;7.70;98.40
55648;DHT22;45266;48.756;9.246;2023-11-21T09:05:31;7.80;98.00
55648;DHT22;45266;48.756;9.246;2023-11-21T09:10:34;8.00;97.80
55648;DHT22;45266;48.756;9.246;2023-11-21T09:15:39;8.10;97.80
55648;DHT22;45266;48.756;9.246;2023-11-21T09:20:42;8.10;97.00
55648;DHT22;45266;48.756;9.246;2023-11-21T09:25:47;8.20;95.40
55648;DHT22;45266;48.756;9.246;2023-11-21T09:30:51;8.30;94.80
55648;DHT22;45266;48.756;9.246;2023-11-21T09:35:53;8.50;94.20
55648;DHT22;45266;48.756;9.246;2023-11-21T09:40:56;8.60;92.80
55648;DHT22;45266;48.756;9.246;2023-11-21T09:46:02;8.80;91.40
55648;DHT22;45266;48.756;9.246;2023-11-21T09:51:08;8.80;89.60
55648;DHT22;45266;48.756;9.246;2023-11-21T09:56:11;8.90;89.70
55648;DHT22;45266;48.756;9.246;2023-11-21T10:01:14;8.90;89.10
55648;DHT22;45266;48.756;9.246;2023-11-21T10:06:18;9.00;89.10
55648;DHT22;45266;48.756;9.246;2023-11-21T10:11:20;9.00;88.90
55648;DHT22;45266;48.756;9.246;2023-11-21T10:16:26;9.00;88.70
55648;DHT22;45266;48.756;9.246;2023-11-21T10:21:29;9.10;88.70
55648;DHT22;45266;48.756;9.246;2023-11-21T10:26:32;9.20;89.90
55648;DHT22;45266;48.756;9.246;2023-11-21T10:31:51;9.20;90.00
55648;DHT22;45266;48.756;9.246;2023-11-21T10:36:56;9.40;87.30
55648;DHT22;45266;48.756;9.246;2023-11-21T10:42:00;9.40;87.40
55648;DHT22;45266;48.756;9.246;2023-11-21T10:47:02;9.40;87.50
55648;DHT22;45266;48.756;9.246;2023-11-21T10:52:05;9.40;88.10
55648;DHT22;45266;48.756;9.246;2023-11-21T10:57:07;9.10;89.30
55648;DHT22;45266;48.756;9.246;2023-11-21T11:02:19;9.00;90.20
55648;DHT22;45266;48.756;9.246;2023-11-21T11:07:27;8.90;91.20
55648;DHT22;45266;48.756;9.246;2023-11-21T11:12:31;8.80;91.70
55648;DHT22;45266;48.756;9.246;2023-11-21T11:17:37;8.80;91.90
55648;DHT22;45266;48.756;9.246;2023-11-21T11:28:10;8.90;92.00
55648;DHT22;45266;48.756;9.246;2023-11-21T11:33:21;9.00;92.20
55648;DHT22;45266;48.756;9.246;2023-11-21T11:38:32;9.20;92.50
55648;DHT22;45266;48.756;9.246;2023-11-21T11:43:38;9.30;91.50
55648;DHT22;45266;48.756;9.246;2023-11-21T11:48:55;9.40;90.90
55648;DHT22;45266;48.756;9.246;2023-11-21T11:54:07;9.40;90.30
55648;DHT22;45266;48.756;9.246;2023-11-21T11:59:11;9.40;90.20
55648;DHT22;45266;48.756;9.246;2023-11-21T12:09:37;9.50;89.90
55648;DHT22;45266;48.756;9.246;2023-11-21T12:14:39;9.40;89.70
55648;DHT22;45266;48.756;9.246;2023-11-21T12:19:41;9.40;89.50
55648;DHT22;45266;48.756;9.246;2023-11-21T12:24:44;9.40;89.40
55648;DHT22;45266;48.756;9.246;2023-11-21T12:29:46;9.50;89.30
55648;DHT22;45266;48.756;9.246;2023-11-21T12:34:51;9.60;89.00
55648;DHT22;45266;48.756;9.246;2023-11-21T12:39:54;9.50;88.40
55648;DHT22;45266;48.756;9.246;2023-11-21T12:45:12;9.40;88.60
55648;DHT22;45266;48.756;9.246;2023-11-21T12:50:24;9.40;90.00
55648;DHT22;45266;48.756;9.246;2023-11-21T12:55:36;9.40;89.60
55648;DHT22;45266;48.756;9.246;2023-11-21T13:00:48;9.40;89.50
55648;DHT22;45266;48.756;9.246;2023-11-21T13:05:51;9.40;88.20
55648;DHT22;45266;48.756;9.246;2023-11-21T13:10:57;9.30;87.00
55648;DHT22;45266;48.756;9.246;2023-11-21T13:16:01;9.20;87.20
55648;DHT22;45266;48.756;9.246;2023-11-21T13:21:05;9.00;88.20
55648;DHT22;45266;48.756;9.246;2023-11-21T13:26:20;9.00;90.20
55648;DHT22;45266;48.756;9.246;2023-11-21T13:31:25;9.00;91.50
55648;DHT22;45266;48.756;9.246;2023-11-21T13:36:31;9.20;91.00
55648;DHT22;45266;48.756;9.246;2023-11-21T13:41:38;9.20;90.00
55648;DHT22;45266;48.756;9.246;2023-11-21T13:46:46;9.30;89.60
55648;DHT22;45266;48.756;9.246;2023-11-21T13:51:53;9.20;89.80
55648;DHT22;45266;48.756;9.246;2023-11-21T13:56:59;9.00;90.30
55648;DHT22;45266;48.756;9.246;2023-11-21T14:02:05;8.80;91.50
55648;DHT22;45266;48.756;9.246;2023-11-21T14:07:33;8.60;91.60
55648;DHT22;45266;48.756;9.246;2023-11-21T14:12:38;8.60;92.40
55648;DHT22;45266;48.756;9.246;2023-11-21T14:17:43;8.50;92.90
55648;DHT22;45266;48.756;9.246;2023-11-21T14:22:46;8.50;93.40
55648;DHT22;45266;48.756;9.246;2023-11-21T14:27:49;8.50;93.40
55648;DHT22;45266;48.756;9.246;2023-11-21T14:32:52;8.40;92.80
55648;DHT22;45266;48.756;9.246;2023-11-21T14:37:55;8.30;93.20
55648;DHT22;45266;48.756;9.246;2023-11-21T14:43:03;8.30;93.40
55648;DHT22;45266;48.756;9.246;2023-11-21T14:48:14;8.20;93.60
55648;DHT22;45266;48.756;9.246;2023-11-21T14:53:36;8.30;93.70
55648;DHT22;45266;48.756;9.246;2023-11-21T14:59:01;8.30;93.60
55648;DHT22;45266;48.756;9.246;2023-11-21T15:04:24;8.30;94.00
55648;DHT22;45266;48.756;9.246;2023-11-21T15:09:41;8.30;93.80
55648;DHT22;45266;48.756;9.246;2023-11-21T15:14:47;8.30;93.60
55648;DHT22;45266;48.756;9.246;2023-11-21T15:19:52;8.20;93.60
55648;DHT22;45266;48.756;9.246;2023-11-21T15:25:02;8.30;93.90
55648;DHT22;45266;48.756;9.246;2023-11-21T15:30:20;8.30;93.90
55648;DHT22;45266;48.756;9.246;2023-11-21T15:35:26;8.30;94.00
55648;DHT22;45266;48.756;9.246;2023-11-21T15:40:32;8.30;93.80
55648;DHT22;45266;48.756;9.246;2023-11-21T15:45:35;8.20;93.80
55648;DHT22;45266;48.756;9.246;2023-11-21T15:50:37;8.10;94.20
55648;DHT22;45266;48.756;9.246;2023-11-21T15:55:39;8.10;94.60
55648;DHT22;45266;48.756;9.246;2023-11-21T16:00:45;8.10;94.80
55648;DHT22;45266;48.756;9.246;2023-11-21T16:05:47;8.10;95.10
55648;DHT22;45266;48.756;9.246;2023-11-21T16:10:53;8.00;95.20
55648;DHT22;45266;48.756;9.246;2023-11-21T16:16:05;8.00;95.30
55648;DHT22;45266;48.756;9.246;2023-11-21T16:21:11;7.90;95.40
55648;DHT22;45266;48.756;9.246;2023-11-21T16:26:13;7.90;95.30
55648;DHT22;45266;48.756;9.246;2023-11-21T16:31:23;8.00;95.40
55648;DHT22;45266;48.756;9.246;2023-11-21T16:36:25;7.90;95.20
55648;DHT22;45266;48.756;9.246;2023-11-21T16:41:27;7.80;95.20
55648;DHT22;45266;48.756;9.246;2023-11-21T16:46:30;7.80;94.80
55648;DHT22;45266;48.756;9.246;2023-11-21T16:51:31;7.80;94.80
55648;DHT22;45266;48.756;9.246;2023-11-21T16:56:34;7.80;94.60
55648;DHT22;45266;48.756;9.246;2023-11-21T17:01:37;7.70;94.40
55648;DHT22;45266;48.756;9.246;2023-11-21T17:06:40;7.50;94.80
55648;DHT22;45266;48.756;9.246;2023-11-21T17:11:42;7.40;95.00
55648;DHT22;45266;48.756;9.246;2023-11-21T17:16:47;7.20;95.20
55648;DHT22;45266;48.756;9.246;2023-11-21T17:21:51;7.00;95.70
55648;DHT22;45266;48.756;9.246;2023-11-21T17:26:53;6.90;95.60
55648;DHT22;45266;48.756;9.246;2023-11-21T17:31:55;6.70;95.30
55648;DHT22;45266;48.756;9.246;2023-11-21T17:36:57;6.60;95.30
55648;DHT22;45266;48.756;9.246;2023-11-21T17:41:59;6.50;96.10
55648;DHT22;45266;48.756;9.246;2023-11-21T17:47:01;6.50;96.60
55648;DHT22;45266;48.756;9.246;2023-11-21T17:52:04;6.50;97.20
55648;DHT22;45266;48.756;9.246;2023-11-21T17:57:07;6.50;97.30
55648;DHT22;45266;48.756;9.246;2023-11-21T18:02:09;6.50;97.40
55648;DHT22;45266;48.756;9.246;2023-11-21T18:07:12;6.50;97.60
55648;DHT22;45266;48.756;9.246;2023-11-21T18:12:14;6.50;97.50
55648;DHT22;45266;48.756;9.246;2023-11-21T18:17:18;6.50;97.50
55648;DHT22;45266;48.756;9.246;2023-11-21T18:22:23;6.50;97.50
55648;DHT22;45266;48.756;9.246;2023-11-21T18:27:32;6.60;97.70
55648;DHT22;45266;48.756;9.246;2023-11-21T18:32:38;6.50;97.20
55648;DHT22;45266;48.756;9.246;2023-11-21T18:37:47;6.50;97.40
55648;DHT22;45266;48.756;9.246;2023-11-21T18:42:54;6.60;97.50
55648;DHT22;45266;48.756;9.246;2023-11-21T18:48:01;6.60;97.30
55648;DHT22;45266;48.756;9.246;2023-11-21T18:53:10;6.60;97.50
55648;DHT22;45266;48.756;9.246;2023-11-21T18:58:16;6.70;97.70
55648;DHT22;45266;48.756;9.246;2023-11-21T19:03:28;6.70;97.60
55648;DHT22;45266;48.756;9.246;2023-11-21T19:08:41;6.80;98.10
55648;DHT22;45266;48.756;9.246;2023-11-21T19:13:49;6.90;98.10
55648;DHT22;45266;48.756;9.246;2023-11-21T19:18:52;7.00;97.90
55648;DHT22;45266;48.756;9.246;2023-11-21T19:23:54;7.00;98.10
55648;DHT22;45266;48.756;9.246;2023-11-21T19:29:00;7.00;97.80
55648;DHT22;45266;48.756;9.246;2023-11-21T19:34:04;7.00;97.60
55648;DHT22;45266;48.756;9.246;2023-11-21T19:39:07;7.00;97.50
55648;DHT22;45266;48.756;9.246;2023-11-21T19:44:11;7.00;97.80
55648;DHT22;45266;48.756;9.246;2023-11-21T19:49:15;7.00;97.90
55648;DHT22;45266;48.756;9.246;2023-11-21T19:54:18;7.00;98.00
55648;DHT22;45266;48.756;9.246;2023-11-21T19:59:22;7.00;97.90
55648;DHT22;45266;48.756;9.246;2023-11-21T20:04:26;7.00;97.60
55648;DHT22;45266;48.756;9.246;2023-11-21T20:09:29;7.00;97.40
55648;DHT22;45266;48.756;9.246;2023-11-21T20:14:32;7.10;97.00
55648;DHT22;45266;48.756;9.246;2023-11-21T20:19:36;7.10;96.70
55648;DHT22;45266;48.756;9.246;2023-11-21T20:24:39;7.10;96.40
55648;DHT22;45266;48.756;9.246;2023-11-21T20:29:41;7.10;96.40
55648;DHT22;45266;48.756;9.246;2023-11-21T20:34:44;7.10;96.50
55648;DHT22;45266;48.756;9.246;2023-11-21T20:39:47;7.10;96.30
55648;DHT22;45266;48.756;9.246;2023-11-21T20:44:51;7.10;95.90
55648;DHT22;45266;48.756;9.246;2023-11-21T20:49:54;7.10;95.50
55648;DHT22;45266;48.756;9.246;2023-11-21T20:55:01;7.10;95.20
55648;DHT22;45266;48.756;9.246;2023-11-21T21:00:04;7.10;95.30
55648;DHT22;45266;48.756;9.246;2023-11-21T21:05:12;7.10;95.50
55648;DHT22;45266;48.756;9.246;2023-11-21T21:10:17;7.10;95.70
55648;DHT22;45266;48.756;9.246;2023-11-21T21:15:19;7.20;95.70
55648;DHT22;45266;48.756;9.246;2023-11-21T21:20:22;7.10;95.50
55648;DHT22;45266;48.756;9.246;2023-11-21T21:25:25;7.10;95.20
55648;DHT22;45266;48.756;9.246;2023-11-21T21:30:27;7.20;95.40
55648;DHT22;45266;48.756;9.246;2023-11-21T21:35:29;7.20;95.50
55648;DHT22;45266;48.756;9.246;2023-11-21T21:40:32;7.10;95.10
55648;DHT22;45266;48.756;9.246;2023-11-21T21:45:37;7.10;95.40
55648;DHT22;45266;48.756;9.246;2023-11-21T21:50:39;7.10;94.90
55648;DHT22;45266;48.756;9.246;2023-11-21T21:55:42;7.20;94.30
55648;DHT22;45266;48.756;9.246;2023-11-21T22:00:44;7.10;94.30
55648;DHT22;45266;48.756;9.246;2023-11-21T22:05:47;7.10;94.40
55648;DHT22;45266;48.756;9.246;2023-11-21T22:10:49;7.10;94.00
55648;DHT22;45266;48.756;9.246;2023-11-21T22:15:52;7.20;94.30
55648;DHT22;45266;48.756;9.246;2023-11-21T22:20:54;7.20;93.60
55648;DHT22;45266;48.756;9.246;2023-11-21T22:25:57;7.10;93.70
55648;DHT22;45266;48.756;9.246;2023-11-21T22:31:00;7.10;94.10
55648;DHT22;45266;48.756;9.246;2023-11-21T22:36:02;7.20;94.10
55648;DHT22;45266;48.756;9.246;2023-11-21T22:41:05;7.10;93.70
55648;DHT22;45266;48.756;9.246;2023-11-21T22:46:08;7.10;94.10
55648;DHT22;45266;48.756;9.246;2023-11-21T22:51:10;7.00;94.80
55648;DHT22;45266;48.756;9.246;2023-11-21T22:56:13;7.00;95.30
55648;DHT22;45266;48.756;9.246;2023-11-21T23:01:17;7.00;95.30
55648;DHT22;45266;48.756;9.246;2023-11-21T23:06:22;7.10;95.40
55648;DHT22;45266;48.756;9.246;2023-11-21T23:11:26;7.10;94.90
55648;DHT22;45266;48.756;9.246;2023-11-21T23:16:29;7.00;94.80
55648;DHT22;45266;48.756;9.246;2023-11-21T23:21:32;7.10;95.20
55648;DHT22;45266;48.756;9.246;2023-11-21T23:26:37;7.00;94.80
55648;DHT22;45266;48.756;9.246;2023-11-21T23:31:41;7.20;94.50
55648;DHT22;45266;48.756;9.246;2023-11-21T23:36:43;7.20;94.30
55648;DHT22;45266;48.756;9.246;2023-11-21T23:41:48;7.20;93.90
55648;DHT22;45266;48.756;9.246;2023-11-21T23:46:50;7.20;93.90
55648;DHT22;45266;48.756;9.246;2023-11-21T23:51:53;7.10;94.00
55648;DHT22;45266;48.756;9.246;2023-11-21T23:56:56;7.10;94.20
